createdAt,value
2023-03-26T00:00:48.444Z,99941.4453125
2023-03-26T00:01:48.392Z,99943.40234375
2023-03-26T00:02:48.770Z,99936.4453125
2023-03-26T00:03:48.344Z,99940.578125
2023-03-26T00:04:48.400Z,99938.78515625
2023-03-26T00:05:50.745Z,99942.2578125
2023-03-26T00:06:48.362Z,99944.05078125
2023-03-26T00:07:48.773Z,99942.0390625
2023-03-26T00:08:48.369Z,99944.9765625
2023-03-26T00:09:48.461Z,99949.5390625
2023-03-26T00:10:48.379Z,99947.4140625
2023-03-26T00:11:48.498Z,99946.5234375
2023-03-26T00:12:48.784Z,99944.99609375
2023-03-26T00:13:48.344Z,99944.91015625
2023-03-26T00:14:48.386Z,99943.08984375
2023-03-26T00:15:48.381Z,99941.890625
2023-03-26T00:16:50.727Z,99945.17578125
2023-03-26T00:17:48.819Z,99944.40625
2023-03-26T00:18:48.376Z,99945.140625
2023-03-26T00:19:48.354Z,99946.16796875
2023-03-26T00:20:48.468Z,99946.3828125
2023-03-26T00:21:48.524Z,99944.44921875
2023-03-26T00:22:48.408Z,99944.71484375
2023-03-26T00:23:48.483Z,99945.58203125
2023-03-26T00:24:48.751Z,99945.00390625
2023-03-26T00:25:49.546Z,99944.78515625
2023-03-26T00:26:48.386Z,99940.3515625
2023-03-26T00:27:53.197Z,99944.63671875
2023-03-26T00:28:48.473Z,99944.2265625
2023-03-26T00:29:48.532Z,99943.67578125
2023-03-26T00:30:48.425Z,99944.2109375
2023-03-26T00:31:48.368Z,99943.88671875
2023-03-26T00:32:53.517Z,99942.390625
2023-03-26T00:33:48.386Z,99940.48828125
2023-03-26T00:34:48.468Z,99941.546875
2023-03-26T00:35:48.425Z,99941.33203125
2023-03-26T00:36:48.393Z,99944.26953125
2023-03-26T00:37:48.519Z,99943.45703125
2023-03-26T00:38:50.786Z,99940.68359375
2023-03-26T00:39:48.780Z,99946.71484375
2023-03-26T00:40:48.361Z,99945.0859375
2023-03-26T00:41:48.499Z,99945.734375
2023-03-26T00:42:48.773Z,99951.30859375
2023-03-26T00:43:48.406Z,99949.65234375
2023-03-26T00:44:48.475Z,99951.98828125
2023-03-26T00:45:48.437Z,99948.1875
2023-03-26T00:46:48.372Z,99955.63671875
2023-03-26T00:47:48.803Z,99955.59375
2023-03-26T00:48:48.358Z,99952.8671875
2023-03-26T00:49:50.833Z,99951.0234375
2023-03-26T00:50:48.346Z,99954.91015625
2023-03-26T00:51:48.357Z,99957.68359375
2023-03-26T00:52:48.735Z,99958.28515625
2023-03-26T00:53:48.364Z,99954.91796875
2023-03-26T00:54:48.831Z,99959.328125
2023-03-26T00:55:48.356Z,99957.4296875
2023-03-26T00:56:48.399Z,99955.60546875
2023-03-26T00:57:48.798Z,99962.07421875
2023-03-26T00:58:48.494Z,99952.61328125
2023-03-26T00:59:48.380Z,99955.14453125
2023-03-26T01:00:50.762Z,99951.9375
2023-03-26T01:01:48.380Z,99952.4453125
2023-03-26T01:02:48.911Z,99953.7578125
2023-03-26T01:04:01.232Z,99946.8046875
2023-03-26T01:04:48.458Z,99943.05859375
2023-03-26T01:05:48.372Z,99946.23828125
2023-03-26T01:06:48.390Z,99939.671875
2023-03-26T01:07:48.802Z,99940.62109375
2023-03-26T01:08:48.489Z,99940.65625
2023-03-26T01:09:48.759Z,99944.46875
2023-03-26T01:10:48.454Z,99939.49609375
2023-03-26T01:11:50.703Z,99937.984375
2023-03-26T01:12:48.786Z,99933.8828125
2023-03-26T01:13:48.500Z,99930.5078125
2023-03-26T01:14:49.306Z,99926.4453125
2023-03-26T01:15:48.512Z,99929.34765625
2023-03-26T01:16:48.373Z,99922.34375
2023-03-26T01:17:48.829Z,99922.75
2023-03-26T01:18:48.342Z,99920.69140625
2023-03-26T01:19:48.420Z,99921.75
2023-03-26T01:20:48.510Z,99913.44140625
2023-03-26T01:21:48.473Z,99914.01171875
2023-03-26T01:22:53.154Z,99914.98828125
2023-03-26T01:23:48.532Z,99913.22265625
2023-03-26T01:24:48.761Z,99911.9765625
2023-03-26T01:25:48.478Z,99912.0859375
2023-03-26T01:26:48.350Z,99912.46484375
2023-03-26T01:27:48.757Z,99910.34765625
2023-03-26T01:28:48.510Z,99905.89453125
2023-03-26T01:29:48.370Z,99901.11328125
2023-03-26T01:30:48.370Z,99901.46875
2023-03-26T01:31:48.482Z,99901.140625
2023-03-26T01:32:48.895Z,99895.0859375
2023-03-26T01:33:50.752Z,99898.859375
2023-03-26T01:34:48.361Z,99897.74609375
2023-03-26T01:35:48.538Z,99896.01171875
2023-03-26T01:36:48.351Z,99892.91015625
2023-03-26T01:37:48.791Z,99893.671875
2023-03-26T01:38:48.363Z,99892.20703125
2023-03-26T01:39:48.763Z,99888.73046875
2023-03-26T01:40:48.524Z,99887.72265625
2023-03-26T01:41:48.367Z,99888.16015625
2023-03-26T01:42:48.787Z,99889.6015625
2023-03-26T01:43:48.348Z,99885.66015625
2023-03-26T01:44:50.851Z,99885.28125
2023-03-26T01:45:48.364Z,99884.49609375
2023-03-26T01:46:48.380Z,99886.66796875
2023-03-26T01:47:48.800Z,99882.75390625
2023-03-26T01:48:48.490Z,99884.83984375
2023-03-26T01:49:48.390Z,99882.203125
2023-03-26T01:50:48.512Z,99882.2734375
2023-03-26T01:51:48.765Z,99887.1875
2023-03-26T01:52:48.775Z,99882.75390625
2023-03-26T01:53:48.365Z,99883.36328125
2023-03-26T01:54:48.776Z,99880.88671875
2023-03-26T01:55:50.705Z,99878.90234375
2023-03-26T01:56:48.570Z,99882.765625
2023-03-26T01:57:48.772Z,99878.35546875
2023-03-26T01:58:48.468Z,99877.33984375
2023-03-26T01:59:48.365Z,99876.578125
2023-03-26T02:00:48.402Z,99878.91015625
2023-03-26T02:01:48.511Z,99874.96484375
2023-03-26T02:02:48.945Z,99873.71484375
2023-03-26T02:03:48.410Z,99878.28125
2023-03-26T02:04:48.361Z,99879.46875
2023-03-26T02:05:48.359Z,99873.109375
2023-03-26T02:06:50.818Z,99874.1875
2023-03-26T02:07:48.877Z,99870.6015625
2023-03-26T02:08:48.419Z,99872.75
2023-03-26T02:09:48.987Z,99868.2890625
2023-03-26T02:10:48.548Z,99866.21875
2023-03-26T02:11:48.363Z,99862.93359375
2023-03-26T02:12:48.778Z,99868.0625
2023-03-26T02:13:48.374Z,99867.984375
2023-03-26T02:14:48.358Z,99865.92578125
2023-03-26T02:15:48.399Z,99860.1484375
2023-03-26T02:16:48.364Z,99854.91015625
2023-03-26T02:17:53.305Z,99852.95703125
2023-03-26T02:18:48.350Z,99847.90234375
2023-03-26T02:19:48.438Z,99847.62890625
2023-03-26T02:20:48.443Z,99839.4765625
2023-03-26T02:21:48.362Z,99844.01953125
2023-03-26T02:22:48.755Z,99846.44140625
2023-03-26T02:23:48.370Z,99845.39453125
2023-03-26T02:24:48.764Z,99842.953125
2023-03-26T02:25:48.358Z,99844.48046875
2023-03-26T02:26:48.501Z,99843.80859375
2023-03-26T02:27:48.456Z,99840.76953125
2023-03-26T02:28:50.727Z,99838.04296875
2023-03-26T02:29:48.374Z,99838.79296875
2023-03-26T02:30:48.354Z,99835.51953125
2023-03-26T02:31:48.482Z,99832.390625
2023-03-26T02:32:48.816Z,99834.88671875
2023-03-26T02:33:48.494Z,99831.79296875
2023-03-26T02:34:48.371Z,99829.9140625
2023-03-26T02:35:48.562Z,99825.48046875
2023-03-26T02:36:48.393Z,99822.51953125
2023-03-26T02:37:48.745Z,99821.609375
2023-03-26T02:38:48.363Z,99815.85546875
2023-03-26T02:39:53.216Z,99819.0390625
2023-03-26T02:40:48.390Z,99817.3359375
2023-03-26T02:41:48.361Z,99813.2109375
2023-03-26T02:42:48.750Z,99811.23046875
2023-03-26T02:43:48.382Z,99812.33203125
2023-03-26T02:44:48.474Z,99813.765625
2023-03-26T02:45:48.386Z,99810.671875
2023-03-26T02:46:48.353Z,99810.453125
2023-03-26T02:47:48.798Z,99814.203125
2023-03-26T02:48:48.339Z,99812.98046875
2023-03-26T02:49:48.486Z,99811.3984375
2023-03-26T02:50:50.670Z,99806.765625
2023-03-26T02:51:48.803Z,99809.23046875
2023-03-26T02:52:48.814Z,99805.09375
2023-03-26T02:53:48.355Z,99805.59765625
2023-03-26T02:54:48.770Z,99803.53515625
2023-03-26T02:55:48.364Z,99802.7109375
2023-03-26T02:56:48.368Z,99798.80078125
2023-03-26T02:57:48.752Z,99800.7578125
2023-03-26T02:58:48.396Z,99803.53515625
2023-03-26T02:59:48.365Z,99798.6953125
2023-03-26T03:00:48.524Z,99798.421875
2023-03-26T03:01:50.733Z,99795.37109375
2023-03-26T03:02:48.914Z,99792.7578125
2023-03-26T03:03:48.551Z,99793.73828125
2023-03-26T03:04:48.342Z,99792.26171875
2023-03-26T03:05:48.372Z,99791.63671875
2023-03-26T03:06:48.377Z,99789.65234375
2023-03-26T03:07:48.814Z,99789.27734375
2023-03-26T03:08:48.462Z,99791.80078125
2023-03-26T03:09:48.747Z,99789.16796875
2023-03-26T03:10:48.361Z,99787.921875
2023-03-26T03:11:48.488Z,99788.85546875
2023-03-26T03:12:53.186Z,99787.703125
2023-03-26T03:13:48.361Z,99790.1484375
2023-03-26T03:14:48.479Z,99783.703125
2023-03-26T03:15:48.470Z,99781.73828125
2023-03-26T03:16:48.353Z,99782.765625
2023-03-26T03:17:48.787Z,99785.41796875
2023-03-26T03:18:48.359Z,99783.921875
2023-03-26T03:19:48.489Z,99784.0234375
2023-03-26T03:20:48.346Z,99780.1796875
2023-03-26T03:21:48.357Z,99777.0078125
2023-03-26T03:22:48.756Z,99777.7578125
2023-03-26T03:23:50.745Z,99774.44140625
2023-03-26T03:24:48.787Z,99778.30078125
2023-03-26T03:25:48.369Z,99771.6328125
2023-03-26T03:26:48.510Z,99777.00390625
2023-03-26T03:27:48.772Z,99771.3984375
2023-03-26T03:28:48.364Z,99767.62109375
2023-03-26T03:29:48.509Z,99767.484375
2023-03-26T03:30:48.395Z,99765.3203125
2023-03-26T03:31:48.371Z,99766.734375
2023-03-26T03:32:48.812Z,99766.95703125
2023-03-26T03:33:48.470Z,99763.5703125
2023-03-26T03:34:50.744Z,99761.9921875
2023-03-26T03:35:48.442Z,99761.71484375
2023-03-26T03:36:48.378Z,99761.4140625
2023-03-26T03:37:48.761Z,99754.87109375
2023-03-26T03:38:48.496Z,99756.40625
2023-03-26T03:39:48.788Z,99755.54296875
2023-03-26T03:40:48.413Z,99755.21484375
2023-03-26T03:41:48.363Z,99756.015625
2023-03-26T03:42:48.779Z,99757.16015625
2023-03-26T03:43:48.362Z,99755.140625
2023-03-26T03:44:48.458Z,99750.625
2023-03-26T03:45:50.741Z,99751.1953125
2023-03-26T03:46:48.513Z,99749.8359375
2023-03-26T03:47:48.747Z,99746.83984375
2023-03-26T03:48:48.373Z,99745.96484375
2023-03-26T03:49:48.383Z,99745.59765625
2023-03-26T03:50:48.498Z,99745.578125
2023-03-26T03:51:48.776Z,99743.5625
2023-03-26T03:52:48.749Z,99741.765625
2023-03-26T03:53:48.459Z,99744.18359375
2023-03-26T03:54:48.807Z,99741.16796875
2023-03-26T03:55:48.359Z,99737.79296875
2023-03-26T03:56:50.827Z,99732.42578125
2023-03-26T03:57:48.810Z,99726.515625
2023-03-26T03:58:48.514Z,99722.421875
2023-03-26T03:59:48.388Z,99720.296875
2023-03-26T04:00:48.368Z,99718.22265625
2023-03-26T04:01:48.537Z,99718.3046875
2023-03-26T04:02:48.505Z,99719.11328125
2023-03-26T04:03:48.596Z,99723.0390625
2023-03-26T04:04:48.395Z,99723.52734375
2023-03-26T04:05:48.492Z,99720.25
2023-03-26T04:06:48.364Z,99717.484375
2023-03-26T04:07:53.272Z,99718.62890625
2023-03-26T04:08:48.531Z,99719.37109375
2023-03-26T04:09:48.785Z,99719.91796875
2023-03-26T04:10:48.401Z,99717.359375
2023-03-26T04:11:48.465Z,99715.1953125
2023-03-26T04:12:48.764Z,99713.62109375
2023-03-26T04:13:48.505Z,99715.84375
2023-03-26T04:14:48.441Z,99714.9765625
2023-03-26T04:15:48.427Z,99715.07421875
2023-03-26T04:16:48.934Z,99713.94921875
2023-03-26T04:17:48.831Z,99711.9921875
2023-03-26T04:18:50.826Z,99711.5546875
2023-03-26T04:19:48.400Z,99713.47265625
2023-03-26T04:20:48.366Z,99713.12109375
2023-03-26T04:21:48.444Z,99714.61328125
2023-03-26T04:22:48.789Z,99714.0078125
2023-03-26T04:23:48.364Z,99711.7265625
2023-03-26T04:24:48.832Z,99705.63671875
2023-03-26T04:25:48.632Z,99706.9453125
2023-03-26T04:26:48.380Z,99702.26171875
2023-03-26T04:27:48.776Z,99702.296875
2023-03-26T04:28:48.488Z,99698.19140625
2023-03-26T04:29:50.710Z,99698.6328125
2023-03-26T04:30:48.335Z,99692.40234375
2023-03-26T04:31:48.381Z,99696.49609375
2023-03-26T04:32:48.860Z,99695.73828125
2023-03-26T04:33:48.436Z,99690.40625
2023-03-26T04:34:48.499Z,99691.83203125
2023-03-26T04:35:48.485Z,99689.828125
2023-03-26T04:36:48.410Z,99688.67578125
2023-03-26T04:37:48.985Z,99688.39453125
2023-03-26T04:38:48.359Z,99683.77734375
2023-03-26T04:39:49.126Z,99686.6640625
2023-03-26T04:40:51.119Z,99684.125
2023-03-26T04:41:48.362Z,99681.65625
2023-03-26T04:42:48.836Z,99675.6640625
2023-03-26T04:43:48.355Z,99673.4296875
2023-03-26T04:44:48.492Z,99670.859375
2023-03-26T04:45:48.401Z,99669.46484375
2023-03-26T04:46:48.484Z,99669.02734375
2023-03-26T04:47:48.817Z,99664.19921875
2023-03-26T04:48:48.462Z,99661
2023-03-26T04:49:48.495Z,99659.50390625
2023-03-26T04:50:48.381Z,99656.640625
2023-03-26T04:51:51.155Z,99654.2578125
2023-03-26T04:52:48.757Z,99649.94921875
2023-03-26T04:53:48.352Z,99647.93359375
2023-03-26T04:54:48.779Z,99645.5
2023-03-26T04:55:48.736Z,99644.84375
2023-03-26T04:56:48.377Z,99639.6875
2023-03-26T04:57:48.755Z,99639.2578125
2023-03-26T04:58:48.391Z,99639.73046875
2023-03-26T04:59:48.369Z,99640.16015625
2023-03-26T05:00:48.550Z,99634.57421875
2023-03-26T05:01:48.471Z,99636.046875
2023-03-26T05:02:53.265Z,99639.234375
2023-03-26T05:03:48.383Z,99637.3359375
2023-03-26T05:04:48.385Z,99638.04296875
2023-03-26T05:05:48.358Z,99633.65234375
2023-03-26T05:06:48.467Z,99636.1171875
2023-03-26T05:07:48.386Z,99637.90234375
2023-03-26T05:08:48.357Z,99636.12890625
2023-03-26T05:09:48.363Z,99635.0234375
2023-03-26T05:10:48.769Z,99632.15625
2023-03-26T05:11:48.432Z,99629.26953125
2023-03-26T05:12:48.752Z,99627.22265625
2023-03-26T05:13:50.747Z,99622.98046875
2023-03-26T05:14:48.358Z,99619.984375
2023-03-26T05:15:48.404Z,99618.55078125
2023-03-26T05:16:48.526Z,99616.890625
2023-03-26T05:17:48.777Z,99614.09375
2023-03-26T05:18:48.446Z,99609.80078125
2023-03-26T05:19:48.376Z,99605.7265625
2023-03-26T05:20:48.488Z,99601.37109375
2023-03-26T05:21:48.362Z,99597.828125
2023-03-26T05:22:48.790Z,99593.6875
2023-03-26T05:23:48.447Z,99590.51953125
2023-03-26T05:24:50.730Z,99588.57421875
2023-03-26T05:25:48.788Z,99583.84765625
2023-03-26T05:26:48.384Z,99578.9609375
2023-03-26T05:27:48.788Z,99572.33203125
2023-03-26T05:28:48.478Z,99567.078125
2023-03-26T05:29:48.347Z,99566.1640625
2023-03-26T05:30:48.363Z,99563.20703125
2023-03-26T05:31:48.506Z,99560.0078125
2023-03-26T05:32:49.172Z,99559.40234375
2023-03-26T05:33:48.438Z,99563.578125
2023-03-26T05:34:48.339Z,99566.14453125
2023-03-26T05:35:50.853Z,99568.3515625
2023-03-26T05:36:48.311Z,99567.49609375
2023-03-26T05:37:48.762Z,99568.91796875
2023-03-26T05:38:48.470Z,99556.1953125
2023-03-26T05:39:48.368Z,99556.71875
2023-03-26T05:40:48.795Z,99553.7734375
2023-03-26T05:41:48.497Z,99556.95703125
2023-03-26T05:42:48.858Z,99562.7109375
2023-03-26T05:43:48.514Z,99555.44921875
2023-03-26T05:44:48.371Z,99555.40625
2023-03-26T05:45:48.421Z,99553.40625
2023-03-26T05:46:50.750Z,99548.78125
2023-03-26T05:47:48.826Z,99546.11328125
2023-03-26T05:48:48.364Z,99546.40234375
2023-03-26T05:49:48.362Z,99539.16796875
2023-03-26T05:50:48.337Z,99540.82421875
2023-03-26T05:51:48.514Z,99542.55078125
2023-03-26T05:52:48.505Z,99534.3359375
2023-03-26T05:53:48.393Z,99532.2734375
2023-03-26T05:54:48.372Z,99529.57421875
2023-03-26T05:55:48.411Z,99530.86328125
2023-03-26T05:56:48.381Z,99525.30859375
2023-03-26T05:57:50.768Z,99523.25
2023-03-26T05:58:49.385Z,99520.125
2023-03-26T05:59:48.514Z,99517.6328125
2023-03-26T06:00:48.361Z,99511.68359375
2023-03-26T06:01:48.366Z,99513.08984375
2023-03-26T06:02:48.841Z,99521.578125
2023-03-26T06:03:48.475Z,99530.6015625
2023-03-26T06:04:48.458Z,99536.63671875
2023-03-26T06:05:48.479Z,99535.8125
2023-03-26T06:06:48.359Z,99535.734375
2023-03-26T06:07:48.776Z,99531.80078125
2023-03-26T06:09:01.129Z,99526.1953125
2023-03-26T06:09:48.363Z,99521.390625
2023-03-26T06:10:48.744Z,99526.26171875
2023-03-26T06:11:48.358Z,99526.2421875
2023-03-26T06:12:48.392Z,99528.46875
2023-03-26T06:13:48.365Z,99523.73828125
2023-03-26T06:14:48.344Z,99517.7109375
2023-03-26T06:15:48.545Z,99518.859375
2023-03-26T06:16:48.407Z,99516.73828125
2023-03-26T06:17:48.786Z,99511.4609375
2023-03-26T06:18:48.577Z,99512.375
2023-03-26T06:19:50.708Z,99506.421875
2023-03-26T06:20:48.345Z,99510.84765625
2023-03-26T06:21:48.376Z,99503.30078125
2023-03-26T06:22:48.775Z,99496.984375
2023-03-26T06:23:48.489Z,99495.00390625
2023-03-26T06:24:48.486Z,99494.109375
2023-03-26T06:25:48.746Z,99489.61328125
2023-03-26T06:26:48.488Z,99490.06640625
2023-03-26T06:27:48.787Z,99489.91796875
2023-03-26T06:28:48.369Z,99484.68359375
2023-03-26T06:29:48.504Z,99481.56640625
2023-03-26T06:30:50.764Z,99477.24609375
2023-03-26T06:31:48.642Z,99475.24609375
2023-03-26T06:32:48.773Z,99472.5546875
2023-03-26T06:33:48.453Z,99471.06640625
2023-03-26T06:34:48.483Z,99470.8203125
2023-03-26T06:35:48.540Z,99473.0625
2023-03-26T06:36:48.511Z,99465.953125
2023-03-26T06:37:48.752Z,99465.12890625
2023-03-26T06:38:48.475Z,99463.50390625
2023-03-26T06:39:48.365Z,99465.14453125
2023-03-26T06:40:48.798Z,99463.296875
2023-03-26T06:41:50.741Z,99455.20703125
2023-03-26T06:43:08.900Z,99456.62109375
2023-03-26T06:43:48.339Z,99453.55859375
2023-03-26T06:44:48.438Z,99450.18359375
2023-03-26T06:45:48.345Z,99450.51953125
2023-03-26T06:46:48.474Z,99448.75
2023-03-26T06:47:48.422Z,99449.203125
2023-03-26T06:48:48.355Z,99450.921875
2023-03-26T06:49:48.401Z,99448.9921875
2023-03-26T06:50:48.770Z,99449.7109375
2023-03-26T06:51:48.385Z,99450.16796875
2023-03-26T06:52:53.237Z,99449.54296875
2023-03-26T06:53:48.504Z,99445.8203125
2023-03-26T06:54:48.364Z,99444.5390625
2023-03-26T06:55:48.791Z,99445.48046875
2023-03-26T06:56:48.366Z,99443.51171875
2023-03-26T06:57:48.803Z,99441.7421875
2023-03-26T06:58:48.339Z,99441.55859375
2023-03-26T06:59:48.349Z,99440.76953125
2023-03-26T07:00:48.563Z,99443.1953125
2023-03-26T07:01:48.345Z,99435.5859375
2023-03-26T07:02:49.119Z,99439.75390625
2023-03-26T07:03:50.765Z,99438.42578125
2023-03-26T07:04:48.450Z,99439.05859375
2023-03-26T07:05:48.364Z,99441.9140625
2023-03-26T07:06:48.366Z,99441.26953125
2023-03-26T07:07:48.483Z,99439.2578125
2023-03-26T07:08:48.443Z,99440.6640625
2023-03-26T07:09:48.494Z,99441.76953125
2023-03-26T07:10:48.809Z,99441.30078125
2023-03-26T07:11:48.510Z,99438.4921875
2023-03-26T07:12:48.784Z,99437.84375
2023-03-26T07:13:48.483Z,99439.40234375
2023-03-26T07:14:50.674Z,99434.3828125
2023-03-26T07:15:48.514Z,99433.35546875
2023-03-26T07:16:48.530Z,99436.11328125
2023-03-26T07:17:48.771Z,99435.7109375
2023-03-26T07:18:48.444Z,99432.9140625
2023-03-26T07:19:48.442Z,99431.48828125
2023-03-26T07:20:48.373Z,99430.63671875
2023-03-26T07:21:48.508Z,99432.3046875
2023-03-26T07:22:48.793Z,99427.546875
2023-03-26T07:23:48.365Z,99424.27734375
2023-03-26T07:24:48.363Z,99426.953125
2023-03-26T07:25:51.702Z,99423.73828125
2023-03-26T07:26:48.385Z,99426.28125
2023-03-26T07:27:48.749Z,99421.30078125
2023-03-26T07:29:04.498Z,99421.90625
2023-03-26T07:29:48.413Z,99423.05078125
2023-03-26T07:30:48.506Z,99418.375
2023-03-26T07:31:48.489Z,99422.8671875
2023-03-26T07:32:48.841Z,99420.90625
2023-03-26T07:33:48.394Z,99419.98046875
2023-03-26T07:34:48.360Z,99418.296875
2023-03-26T07:35:48.417Z,99418.8125
2023-03-26T07:36:50.816Z,99413.58984375
2023-03-26T07:37:48.380Z,99419.45703125
2023-03-26T07:38:48.470Z,99412.64453125
2023-03-26T07:39:48.452Z,99412.328125
2023-03-26T07:40:48.794Z,99410.453125
2023-03-26T07:41:48.390Z,99407.5078125
2023-03-26T07:42:48.766Z,99405.6171875
2023-03-26T07:43:48.491Z,99405.41796875
2023-03-26T07:44:48.460Z,99402.7890625
2023-03-26T07:45:48.398Z,99398.23828125
2023-03-26T07:46:48.361Z,99393.58984375
2023-03-26T07:47:53.212Z,99394.7734375
2023-03-26T07:48:48.469Z,99394.109375
2023-03-26T07:49:48.384Z,99394.61328125
2023-03-26T07:50:48.347Z,99389.55078125
2023-03-26T07:51:48.415Z,99387.921875
2023-03-26T07:52:48.781Z,99391.6328125
2023-03-26T07:53:48.502Z,99388.8671875
2023-03-26T07:54:48.367Z,99387.734375
2023-03-26T07:55:48.501Z,99388.9375
2023-03-26T07:56:48.427Z,99386.28515625
2023-03-26T07:57:48.428Z,99387.19921875
2023-03-26T07:58:50.866Z,99382.89453125
2023-03-26T07:59:48.465Z,99376.3515625
2023-03-26T08:00:48.329Z,99371.1328125
2023-03-26T08:01:48.510Z,99370.23046875
2023-03-26T08:02:48.882Z,99368.75390625
2023-03-26T08:03:48.569Z,99368.734375
2023-03-26T08:04:48.652Z,99363.40234375
2023-03-26T08:05:48.386Z,99359.85546875
2023-03-26T08:06:48.508Z,99359.4765625
2023-03-26T08:07:48.834Z,99358.640625
2023-03-26T08:08:48.376Z,99360.1640625
2023-03-26T08:09:50.745Z,99360.83203125
2023-03-26T08:10:48.763Z,99359.42578125
2023-03-26T08:11:48.414Z,99358.5546875
2023-03-26T08:12:48.761Z,99356.33203125
2023-03-26T08:13:48.363Z,99357.546875
2023-03-26T08:14:48.362Z,99357.35546875
2023-03-26T08:15:48.535Z,99357.203125
2023-03-26T08:16:48.463Z,99358.01953125
2023-03-26T08:17:48.372Z,99360.30859375
2023-03-26T08:18:48.385Z,99359.0625
2023-03-26T08:19:48.358Z,99359.12890625
2023-03-26T08:20:50.753Z,99360.64453125
2023-03-26T08:21:48.356Z,99360.9921875
2023-03-26T08:22:48.773Z,99355.16796875
2023-03-26T08:23:50.718Z,99356.15625
2023-03-26T08:24:48.454Z,99356.73046875
2023-03-26T08:25:48.459Z,99359.8515625
2023-03-26T08:26:48.365Z,99354.8359375
2023-03-26T08:27:48.778Z,99350.26171875
2023-03-26T08:28:48.424Z,99349.12109375
2023-03-26T08:29:48.446Z,99348.234375
2023-03-26T08:30:48.366Z,99344.4609375
2023-03-26T08:31:50.742Z,99346.078125
2023-03-26T08:32:48.802Z,99344.56640625
2023-03-26T08:33:48.441Z,99347.96875
2023-03-26T08:34:48.362Z,99350.21484375
2023-03-26T08:35:48.497Z,99349.45703125
2023-03-26T08:36:48.359Z,99350.19921875
2023-03-26T08:37:48.749Z,99348.97265625
2023-03-26T08:38:48.494Z,99349.08984375
2023-03-26T08:39:48.469Z,99349.29296875
2023-03-26T08:40:48.774Z,99351.15625
2023-03-26T08:41:48.363Z,99353.99609375
2023-03-26T08:42:53.248Z,99350.98828125
2023-03-26T08:43:48.328Z,99350.671875
2023-03-26T08:44:48.362Z,99350.4453125
2023-03-26T08:45:48.347Z,99350.16015625
2023-03-26T08:46:48.495Z,99350.90625
2023-03-26T08:47:48.782Z,99347.20703125
2023-03-26T08:48:48.516Z,99346.86328125
2023-03-26T08:49:48.420Z,99348.7109375
2023-03-26T08:50:48.360Z,99351.93359375
2023-03-26T08:51:48.513Z,99349.3515625
2023-03-26T08:52:48.763Z,99350.3984375
2023-03-26T08:53:50.763Z,99348.4140625
2023-03-26T08:54:48.467Z,99350.19921875
2023-03-26T08:55:48.370Z,99348.90234375
2023-03-26T08:56:48.394Z,99347.7734375
2023-03-26T08:57:48.797Z,99349.734375
2023-03-26T08:58:48.403Z,99352.56640625
2023-03-26T08:59:48.513Z,99352.1953125
2023-03-26T09:00:48.363Z,99353.92578125
2023-03-26T09:01:48.450Z,99349.2578125
2023-03-26T09:02:48.796Z,99344.51171875
2023-03-26T09:03:48.455Z,99338.28125
2023-03-26T09:04:50.760Z,99327.84765625
2023-03-26T09:05:48.364Z,99320.58984375
2023-03-26T09:06:48.394Z,99315.5703125
2023-03-26T09:07:48.787Z,99315.0078125
2023-03-26T09:08:54.229Z,99318.38671875
2023-03-26T09:09:48.364Z,99322.62109375
2023-03-26T09:10:48.753Z,99322.73828125
2023-03-26T09:11:48.451Z,99320.48828125
2023-03-26T09:12:48.789Z,99322.92578125
2023-03-26T09:13:48.510Z,99320.62890625
2023-03-26T09:14:48.352Z,99320.6953125
2023-03-26T09:15:50.879Z,99317.07421875
2023-03-26T09:16:48.477Z,99312.2890625
2023-03-26T09:17:48.807Z,99311.8671875
2023-03-26T09:18:48.459Z,99309.71484375
2023-03-26T09:19:48.376Z,99307.91015625
2023-03-26T09:20:48.428Z,99308.62109375
2023-03-26T09:21:48.346Z,99310.5234375
2023-03-26T09:22:48.792Z,99313.2578125
2023-03-26T09:23:48.493Z,99315.67578125
2023-03-26T09:24:48.383Z,99318.16796875
2023-03-26T09:25:48.751Z,99315.59375
2023-03-26T09:26:50.746Z,99315.32421875
2023-03-26T09:27:48.786Z,99307.93359375
2023-03-26T09:28:48.370Z,99310.90234375
2023-03-26T09:29:48.353Z,99303.96484375
2023-03-26T09:30:48.486Z,99303.0234375
2023-03-26T09:31:48.447Z,99307.109375
2023-03-26T09:32:48.838Z,99306.5234375
2023-03-26T09:33:48.504Z,99309.65234375
2023-03-26T09:34:48.374Z,99300.0390625
2023-03-26T09:35:48.519Z,99304.79296875
2023-03-26T09:36:48.370Z,99305.37109375
2023-03-26T09:37:56.236Z,99298.18359375
2023-03-26T09:38:48.340Z,99298.98828125
2023-03-26T09:39:48.497Z,99295.96875
2023-03-26T09:40:49.183Z,99288.87890625
2023-03-26T09:41:48.559Z,99285
2023-03-26T09:42:48.769Z,99288.09765625
2023-03-26T09:43:48.364Z,99290.2734375
2023-03-26T09:44:48.366Z,99289.98828125
2023-03-26T09:45:48.482Z,99282.3515625
2023-03-26T09:46:48.350Z,99283.546875
2023-03-26T09:47:48.778Z,99281.1171875
2023-03-26T09:48:50.886Z,99277.34765625
2023-03-26T09:49:48.507Z,99280.96875
2023-03-26T09:50:48.396Z,99279.546875
2023-03-26T09:51:48.763Z,99283.12890625
2023-03-26T09:52:48.809Z,99274.55078125
2023-03-26T09:53:48.351Z,99273.4609375
2023-03-26T09:54:48.613Z,99274.7578125
2023-03-26T09:55:48.783Z,99274.515625
2023-03-26T09:56:48.424Z,99273.61328125
2023-03-26T09:57:48.835Z,99269.26953125
2023-03-26T09:58:48.352Z,99277.546875
2023-03-26T09:59:50.801Z,99269.734375
2023-03-26T10:00:48.408Z,99268.65234375
2023-03-26T10:01:48.346Z,99274.01171875
2023-03-26T10:02:48.833Z,99275.37890625
2023-03-26T10:03:48.362Z,99267.69921875
2023-03-26T10:04:48.388Z,99273.06640625
2023-03-26T10:05:48.398Z,99272.1328125
2023-03-26T10:06:48.364Z,99274.328125
2023-03-26T10:07:48.792Z,99273.03515625
2023-03-26T10:08:48.482Z,99277.40234375
2023-03-26T10:09:48.501Z,99273.3359375
2023-03-26T10:10:50.743Z,99267.6796875
2023-03-26T10:11:48.366Z,99270.88671875
2023-03-26T10:12:48.868Z,99266.453125